Time;durP1;ratioP1;P1;durP2;ratioP2;P2;SDS_P1;SDS_P2;PMS_P1;PMS_P2;Temp;Humidity;BMP_temperature;BMP_pressure;BME280_temperature;BME280_humidity;BME280_pressure;Samples;Min_cycle;Max_cycle;Signal;HPM_P1;HPM_P2
2022/03/23 00:02:17;;;;;;;40.75;24.85;;;;;;;-146.64;100.00;46265.50;5032641;28;20022;-87
2022/03/23 00:04:44;;;;;;;44.72;24.50;;;;;;;-146.64;100.00;45888.28;5033163;28;20496;-87
2022/03/23 00:07:09;;;;;;;52.75;24.55;;;;;;;-146.64;100.00;45880.09;5032182;28;20025;-86
2022/03/23 00:09:35;;;;;;;50.90;24.35;;;;;;;-146.64;100.00;47524.53;5016209;28;20045;-86
2022/03/23 00:12:00;;;;;;;65.53;27.20;;;;;;;-146.64;100.00;51780.34;5014202;28;20104;-86
2022/03/23 00:14:26;;;;;;;48.58;25.83;;;;;;;-146.64;100.00;53727.13;5002424;28;20496;-86
2022/03/23 00:16:51;;;;;;;50.10;25.73;;;;;;;-146.64;100.00;50263.41;5015866;28;20477;-86
2022/03/23 00:19:17;;;;;;;43.55;23.90;;;;;;;-146.64;100.00;48287.53;5033300;28;20089;-86
2022/03/23 00:21:42;;;;;;;49.17;25.52;;;;;;;-146.64;100.00;47897.81;5016750;28;20025;-84
2022/03/23 00:24:08;;;;;;;51.35;25.58;;;;;;;-146.64;100.00;47951.16;5016317;28;20029;-86
2022/03/23 00:26:33;;;;;;;43.88;22.95;;;;;;;-146.64;100.00;55041.97;5027216;28;20029;-86
2022/03/23 00:28:59;;;;;;;52.30;23.80;;;;;;;-146.64;100.00;56357.25;5032747;28;20064;-85
2022/03/23 00:31:24;;;;;;;42.85;24.45;;;;;;;-146.64;100.00;52542.09;5033847;28;20540;-87
2022/03/23 00:33:51;;;;;;;45.65;24.70;;;;;;;-146.64;100.00;53727.13;5033699;28;20068;-88
2022/03/23 00:36:16;;;;;;;54.38;26.25;;;;;;;-146.64;100.00;53201.31;5031659;28;20055;-85
2022/03/23 00:38:42;;;;;;;47.60;25.55;;;;;;;-146.64;100.00;57672.94;5013506;28;20392;-88
2022/03/23 00:41:08;;;;;;;45.85;23.17;;;;;;;-146.64;100.00;57672.94;5034880;28;20068;-87
2022/03/23 00:43:34;;;;;;;42.75;24.63;;;;;;;-146.64;100.00;58725.81;5016131;28;20083;-85
2022/03/23 00:45:59;;;;;;;48.20;24.67;;;;;;;-146.64;100.00;61095.81;5008223;28;20026;-86
2022/03/23 00:48:25;;;;;;;48.08;24.65;;;;;;;-146.64;100.00;61095.81;5017388;28;20022;-87
2022/03/23 00:50:50;;;;;;;44.97;25.10;;;;;;;-146.64;100.00;62676.59;5023720;28;20030;-86
2022/03/23 00:53:17;;;;;;;54.17;25.27;;;;;;;-146.64;100.00;60569.03;5018754;28;20036;-86
2022/03/23 00:55:42;;;;;;;47.85;24.23;;;;;;;-146.64;100.00;62940.13;5034391;28;20385;-86
2022/03/23 00:58:08;;;;;;;43.90;24.88;;;;;;;-146.64;100.00;61095.81;5026617;28;20034;-86
2022/03/23 01:00:34;;;;;;;53.60;26.17;;;;;;;-146.64;100.00;63730.81;5020264;28;20045;-86
2022/03/23 01:02:59;;;;;;;52.67;25.60;;;;;;;-146.64;100.00;61622.69;5053691;28;20030;-85
2022/03/23 01:05:26;;;;;;;52.53;25.00;;;;;;;-146.64;100.00;61886.13;5020321;28;20048;-86
2022/03/23 01:07:52;;;;;;;49.53;27.33;;;;;;;-146.64;100.00;67422.72;5020284;28;20033;-85
2022/03/23 01:10:17;;;;;;;48.55;25.67;;;;;;;-146.64;100.00;64521.66;5036985;28;20043;-87
2022/03/23 01:12:45;;;;;;;43.45;24.85;;;;;;;-146.64;100.00;63994.41;5016767;28;20030;-87
2022/03/23 01:15:12;;;;;;;45.53;25.35;;;;;;;-146.64;100.00;64258.03;5028837;28;20021;-87
2022/03/23 01:17:38;;;;;;;;;;;;;;;-146.64;100.00;67950.44;5002460;28;20038;-87
2022/03/23 01:20:08;;;;;;;45.47;23.75;;;;;;;-146.64;100.00;69269.97;5001393;28;19955;-87
2022/03/23 01:22:37;;;;;;;50.20;24.73;;;;;;;-146.64;100.00;67686.56;5006009;28;20158;-87
2022/03/23 01:25:04;;;;;;;44.97;24.90;;;;;;;-146.64;100.00;67950.44;5031968;28;20025;-86
2022/03/23 01:27:30;;;;;;;48.47;25.98;;;;;;;-146.64;100.00;71118.06;5017230;28;20030;-86
2022/03/23 01:29:55;;;;;;;45.05;24.65;;;;;;;-146.64;100.00;70061.91;5023851;28;20040;-86
2022/03/23 01:32:21;;;;;;;42.80;24.90;;;;;;;-146.64;100.00;76667.50;5042139;28;20018;-85
2022/03/23 01:34:46;;;;;;;50.60;25.45;;;;;;;-146.64;100.00;73231.22;5023671;28;20025;-86
2022/03/23 01:37:12;;;;;;;49.55;25.13;;;;;;;-146.64;100.00;66631.31;5017737;28;20061;-87
2022/03/23 01:39:37;;;;;;;48.75;26.83;;;;;;;-146.64;100.00;69269.97;5040356;28;20074;-86
2022/03/23 01:42:03;;;;;;;50.30;25.20;;;;;;;-146.64;100.00;64785.31;5015548;28;20065;-86
2022/03/23 01:44:28;;;;;;;47.55;25.90;;;;;;;-146.64;100.00;74023.97;5021096;28;20026;-85
2022/03/23 01:47:08;;;;;;;48.80;27.00;;;;;;;-146.64;100.00;76403.06;5030320;28;20128;-84
2022/03/23 01:49:39;;;;;;;49.05;24.70;;;;;;;-146.64;100.00;70325.94;5037513;28;20018;-86
2022/03/23 01:52:08;;;;;;;42.72;24.88;;;;;;;-146.64;100.00;79048.19;5028098;28;20092;-84
2022/03/23 01:54:34;;;;;;;50.28;24.40;;;;;;;-146.64;100.00;76403.06;5019399;28;20029;-85
2022/03/23 01:57:00;;;;;;;49.25;25.70;;;;;;;-146.64;100.00;72967.03;5034830;28;20156;-85
2022/03/23 01:59:26;;;;;;;47.33;26.17;;;;;;;-146.64;100.00;79312.78;5037098;28;20065;-86
2022/03/23 02:01:53;;;;;;;51.38;27.20;;;;;;;-146.64;100.00;80106.72;5018118;28;20032;-85
2022/03/23 02:04:21;;;;;;;48.97;26.85;;;;;;;-146.64;100.00;78254.47;5016102;28;20034;-86
2022/03/23 02:06:48;;;;;;;46.10;26.83;;;;;;;-146.64;100.00;77196.41;5011402;28;20548;-87
2022/03/23 02:09:14;;;;;;;47.85;26.88;;;;;;;-146.64;100.00;76931.94;5018326;28;20073;-85
2022/03/23 02:11:41;;;;;;;51.00;26.88;;;;;;;-146.64;100.00;76403.06;5008612;28;20140;-87
2022/03/23 02:14:06;;;;;;;45.40;24.83;;;;;;;-146.64;100.00;80636.09;5036003;28;20489;-85
2022/03/23 02:16:41;;;;;;;52.00;27.35;;;;;;;-146.64;100.00;81959.81;5016424;28;20065;-86
2022/03/23 02:19:07;;;;;;;57.17;27.55;;;;;;;-146.64;100.00;83284.00;4999370;28;20022;-86
2022/03/23 02:21:34;;;;;;;57.28;26.00;;;;;;;-146.64;100.00;79842.06;5031503;28;20033;-85
2022/03/23 02:23:59;;;;;;;47.03;24.85;;;;;;;-146.64;100.00;80371.41;5016536;28;20060;-85
2022/03/23 02:26:26;;;;;;;56.30;26.63;;;;;;;-146.64;100.00;80371.41;5010873;28;20064;-87
2022/03/23 02:28:53;;;;;;;61.92;26.85;;;;;;;-146.64;100.00;82489.44;5018838;28;20036;-86
2022/03/23 02:31:19;;;;;;;46.33;26.13;;;;;;;-146.64;100.00;83548.88;5035029;28;20026;-84
2022/03/23 02:33:44;;;;;;;42.63;25.38;;;;;;;-146.64;100.00;81695.03;5015542;28;20231;-87
2022/03/23 02:36:10;;;;;;;43.47;24.88;;;;;;;-146.64;100.00;81165.53;5017733;28;20029;-86
2022/03/23 02:38:36;;;;;;;56.30;27.92;;;;;;;-146.64;100.00;83019.13;5035853;28;20033;-86
2022/03/23 02:41:01;;;;;;;41.88;25.98;;;;;;;-146.64;100.00;83284.00;5050887;28;20035;-87
2022/03/23 02:43:26;;;;;;;45.45;25.20;;;;;;;-146.64;100.00;83284.00;5018403;28;20122;-86
2022/03/23 02:45:52;;;;;;;49.78;25.77;;;;;;;-146.64;100.00;85668.59;5015163;28;20446;-86
2022/03/23 02:48:17;;;;;;;45.05;26.92;;;;;;;-146.64;100.00;84078.72;5042681;28;20033;-85
2022/03/23 02:50:43;;;;;;;44.47;25.60;;;;;;;-146.64;100.00;86198.72;5018624;28;20317;-85
2022/03/23 03:01:53;;;;;;;53.83;26.75;;;;;;;-146.64;100.00;87524.28;5037122;28;20039;-86
2022/03/23 03:04:21;;;;;;;46.85;24.30;;;;;;;-146.64;100.00;84343.66;5029321;28;20071;-86
2022/03/23 03:06:47;;;;;;;51.95;26.58;;;;;;;-146.64;100.00;83548.88;5040492;28;20472;-85
2022/03/23 03:09:14;;;;;;;48.92;25.83;;;;;;;-146.64;100.00;84873.56;5024579;28;20476;-86
2022/03/23 03:11:40;;;;;;;46.17;26.35;;;;;;;-146.64;100.00;84873.56;5007736;28;20041;-85
2022/03/23 03:14:06;;;;;;;51.90;27.13;;;;;;;-146.64;100.00;83548.88;5040966;28;20119;-85
2022/03/23 03:16:31;;;;;;;45.58;25.15;;;;;;;-146.64;100.00;85668.59;5018320;28;20366;-86
2022/03/23 03:18:56;;;;;;;46.90;26.98;;;;;;;-146.64;100.00;84873.56;5030513;28;20029;-85
2022/03/23 03:21:22;;;;;;;44.88;26.63;;;;;;;-146.64;100.00;83548.88;5015976;28;20098;-86
2022/03/23 03:23:47;;;;;;;51.78;26.90;;;;;;;-146.64;100.00;88319.81;5024137;28;20166;-86
2022/03/23 03:26:16;;;;;;;54.08;26.70;;;;;;;-146.64;100.00;87524.28;5055227;28;20044;-87
2022/03/23 03:28:43;;;;;;;48.42;25.90;;;;;;;-146.64;100.00;86463.78;5020575;28;20033;-86
2022/03/23 03:31:10;;;;;;;53.85;27.80;;;;;;;-146.64;100.00;84608.59;5025855;28;20032;-86
2022/03/23 03:33:36;;;;;;;;;;;;;;;-146.64;100.00;86728.88;5039397;28;20034;-86
2022/03/23 03:36:01;;;;;;;50.15;24.67;;;;;;;-146.64;100.00;85403.56;5022382;28;19948;-86
2022/03/23 03:38:27;;;;;;;59.80;25.77;;;;;;;-146.64;100.00;83284.00;5014538;28;20068;-86
2022/03/23 03:40:53;;;;;;;49.38;27.38;;;;;;;-146.64;100.00;84873.56;5013780;28;20041;-86
2022/03/23 03:43:19;;;;;;;52.42;28.00;;;;;;;-146.64;100.00;84608.59;5021762;28;20523;-86
2022/03/23 03:45:45;;;;;;;50.00;26.27;;;;;;;-146.64;100.00;86728.88;5026280;28;20121;-86
2022/03/23 03:48:10;;;;;;;45.35;26.00;;;;;;;-146.64;100.00;89380.81;5057543;28;20061;-86
2022/03/23 03:50:36;;;;;;;52.78;25.92;;;;;;;-146.64;100.00;89115.53;5034070;28;20026;-84
2022/03/23 03:53:01;;;;;;;45.35;24.80;;;;;;;-146.64;100.00;90176.72;5020259;28;20017;-86
2022/03/23 03:55:27;;;;;;;57.55;25.90;;;;;;;-146.64;100.00;89115.53;5027276;28;20033;-86
2022/03/23 03:57:52;;;;;;;51.88;27.42;;;;;;;-146.64;100.00;90707.41;5042399;28;20026;-85
2022/03/23 04:00:18;;;;;;;47.47;25.58;;;;;;;-146.64;100.00;89115.53;5043577;28;20033;-86
2022/03/23 04:02:45;;;;;;;52.92;26.85;;;;;;;-146.64;100.00;89115.53;5027163;28;20081;-86
2022/03/23 04:05:10;;;;;;;50.55;26.95;;;;;;;-146.64;100.00;88319.81;5043231;28;20041;-86
2022/03/23 04:07:36;;;;;;;53.92;26.30;;;;;;;-146.64;100.00;92565.41;5043115;28;20079;-86
2022/03/23 04:10:05;;;;;;;55.60;27.90;;;;;;;-146.64;100.00;91503.59;5022638;28;20094;-86
2022/03/23 04:12:31;;;;;;;52.63;27.55;;;;;;;-146.64;100.00;90707.41;5012347;28;20044;-85
2022/03/23 04:14:57;;;;;;;47.25;26.20;;;;;;;-146.64;100.00;91503.59;5039976;28;20038;-86
2022/03/23 04:17:23;;;;;;;43.13;26.33;;;;;;;-146.64;100.00;92565.41;5034175;28;20188;-86
2022/03/23 04:19:48;;;;;;;53.45;26.88;;;;;;;-146.64;100.00;90707.41;5038559;28;20176;-85
2022/03/23 04:22:13;;;;;;;49.15;25.73;;;;;;;-146.64;100.00;92034.47;5021265;28;20029;-86
2022/03/23 04:24:39;;;;;;;49.42;26.13;;;;;;;-146.64;100.00;90707.41;5045956;28;20108;-86
2022/03/23 04:27:05;;;;;;;45.47;26.27;;;;;;;-146.64;100.00;92565.41;5024347;28;20033;-85
2022/03/23 04:29:31;;;;;;;55.88;25.42;;;;;;;-146.64;100.00;93096.44;5025939;28;20033;-85
2022/03/23 04:31:56;;;;;;;50.53;26.33;;;;;;;-146.64;100.00;92565.41;5046497;28;20080;-84
2022/03/23 04:34:22;;;;;;;46.35;25.52;;;;;;;-146.64;100.00;91503.59;5046405;28;20473;-86
2022/03/23 04:36:47;;;;;;;49.20;26.10;;;;;;;-146.64;100.00;91769.03;5030014;28;20112;-85
2022/03/23 04:39:12;;;;;;;51.15;27.25;;;;;;;-146.64;100.00;93096.44;5028229;28;20021;-85
2022/03/23 04:41:38;;;;;;;54.28;25.83;;;;;;;-146.64;100.00;91503.59;5028617;28;20026;-84
2022/03/23 04:44:04;;;;;;;47.60;25.80;;;;;;;-146.64;100.00;93893.06;5046896;28;20048;-86
2022/03/23 04:46:29;;;;;;;53.55;26.23;;;;;;;-146.64;100.00;94955.53;5045597;28;20060;-86
2022/03/23 04:48:54;;;;;;;50.88;26.42;;;;;;;-146.64;100.00;96283.97;5026362;28;20021;-86
2022/03/23 04:51:21;;;;;;;58.90;26.83;;;;;;;-146.64;100.00;96815.47;5039115;28;20031;-85
2022/03/23 04:53:47;;;;;;;49.85;26.50;;;;;;;-146.64;100.00;95752.53;5021913;28;20038;-87
2022/03/23 04:56:12;;;;;;;46.03;25.90;;;;;;;-146.64;100.00;96283.97;5029655;28;20045;-85
2022/03/23 04:58:37;;;;;;;49.38;27.08;;;;;;;-146.64;100.00;97081.25;5045490;28;20514;-86
2022/03/23 05:01:04;;;;;;;45.25;25.92;;;;;;;-146.64;100.00;97612.84;5045916;28;20029;-87
2022/03/23 05:03:29;;;;;;;53.70;26.10;;;;;;;-146.64;100.00;96018.25;5024576;28;20026;-86
2022/03/23 05:05:55;;;;;;;53.45;26.45;;;;;;;-146.64;100.00;97347.03;5031310;28;20017;-87
2022/03/23 05:08:21;;;;;;;59.20;28.42;;;;;;;-146.64;100.00;96815.47;5029953;28;20029;-85
2022/03/23 05:10:47;;;;;;;52.40;25.98;;;;;;;-146.64;100.00;96018.25;5037294;28;20070;-86
2022/03/23 05:13:12;;;;;;;50.25;27.13;;;;;;;-146.64;100.00;96018.25;5037726;28;20392;-86
2022/03/23 05:15:39;;;;;;;55.13;27.20;;;;;;;-146.64;100.00;93627.50;5016357;28;20022;-86
2022/03/23 05:18:07;;;;;;;46.80;25.08;;;;;;;-146.64;100.00;93627.50;5045633;28;20028;-87
2022/03/23 05:20:32;;;;;;;49.50;26.98;;;;;;;-146.64;100.00;95221.19;5045643;28;20089;-85
2022/03/23 05:22:58;;;;;;;48.37;27.97;;;;;;;-146.64;100.00;97878.69;5045912;28;20026;-86
2022/03/23 05:25:25;;;;;;;49.60;26.58;;;;;;;-146.64;100.00;99474.03;5046906;28;20461;-86
2022/03/23 05:27:51;;;;;;;62.95;28.38;;;;;;;-146.64;100.00;98676.28;5062057;28;20025;-84
2022/03/23 05:30:18;;;;;;;53.80;27.13;;;;;;;-146.64;100.00;100271.94;5061037;28;20029;-85
2022/03/23 05:32:44;;;;;;;54.22;27.77;;;;;;;-146.64;100.00;101868.22;5027499;28;20021;-85
2022/03/23 05:35:11;;;;;;;52.33;27.25;;;;;;;-146.64;100.00;101602.13;5045154;28;20041;-85
2022/03/23 05:37:37;;;;;;;58.67;27.95;;;;;;;-146.64;100.00;100803.97;5024636;28;20033;-87
2022/03/23 05:40:04;;;;;;;54.20;28.98;;;;;;;-146.64;100.00;100537.94;5027216;28;20143;-86
2022/03/23 05:42:29;;;;;;;62.80;28.10;;;;;;;-146.64;100.00;99739.97;5044234;28;20089;-87
2022/03/23 05:44:54;;;;;;;59.28;28.13;;;;;;;-146.64;100.00;100005.94;5044869;28;20040;-87
2022/03/23 05:47:21;;;;;;;50.55;27.40;;;;;;;-146.64;100.00;99739.97;5044194;28;20037;-87
2022/03/23 05:49:46;;;;;;;57.67;28.70;;;;;;;-146.64;100.00;99739.97;5044348;28;20436;-87
2022/03/23 05:52:12;;;;;;;58.97;29.05;;;;;;;-146.64;100.00;98410.41;5043920;28;20034;-86
2022/03/23 05:54:38;;;;;;;53.40;27.03;;;;;;;-146.64;100.00;98676.28;5024903;28;20084;-87
2022/03/23 05:57:04;;;;;;;56.27;27.63;;;;;;;-146.64;100.00;98676.28;5022067;28;20026;-86
2022/03/23 05:59:30;;;;;;;58.17;27.52;;;;;;;-146.64;100.00;98676.28;5024838;28;20117;-86
2022/03/23 06:01:58;;;;;;;68.30;29.33;;;;;;;-146.64;100.00;99739.97;5029024;28;20025;-85
2022/03/23 06:04:23;;;;;;;54.83;29.48;;;;;;;-146.64;100.00;99208.09;5043663;28;20033;-87
2022/03/23 06:06:49;;;;;;;51.08;26.98;;;;;;;-146.64;100.00;99739.97;5028993;28;20030;-86
2022/03/23 06:09:14;;;;;;;56.08;28.23;;;;;;;-146.64;100.00;99208.09;5044095;28;20035;-86
2022/03/23 06:11:40;;;;;;;59.15;29.10;;;;;;;-146.64;100.00;99474.03;5043890;28;20073;-87
2022/03/23 06:14:05;;;;;;;56.10;29.42;;;;;;;-146.64;100.00;101868.22;5043737;28;20029;-87
2022/03/23 06:16:31;;;;;;;52.77;27.33;;;;;;;-146.64;100.00;100271.94;5044203;28;20495;-87
2022/03/23 06:18:59;;;;;;;56.70;28.90;;;;;;;-146.64;100.00;98676.28;5008056;28;20038;-84
2022/03/23 06:21:25;;;;;;;51.05;29.80;;;;;;;-146.64;100.00;97081.25;5054183;28;20033;-86
2022/03/23 06:23:50;;;;;;;53.28;28.30;;;;;;;-146.64;100.00;98676.28;5023926;28;20124;-87
2022/03/23 06:26:17;;;;;;;63.50;28.58;;;;;;;-146.64;100.00;97081.25;5016897;28;20061;-87
2022/03/23 06:28:42;;;;;;;49.78;28.75;;;;;;;-146.64;100.00;97612.84;5020897;28;20029;-87
2022/03/23 06:31:08;;;;;;;58.33;30.40;;;;;;;-146.64;100.00;98144.53;5025320;28;20079;-87
2022/03/23 06:33:33;;;;;;;57.38;28.75;;;;;;;-146.64;100.00;98942.19;5027497;28;20376;-86
2022/03/23 06:35:59;;;;;;;62.15;28.63;;;;;;;-146.64;100.00;95752.53;5027931;28;20169;-86
2022/03/23 06:38:25;;;;;;;58.53;28.92;;;;;;;-146.64;100.00;94955.53;5045847;28;20055;-86
2022/03/23 06:40:51;;;;;;;61.95;30.02;;;;;;;-146.64;100.00;97347.03;5040088;28;20034;-86
2022/03/23 06:43:16;;;;;;;51.03;28.50;;;;;;;-146.64;100.00;94955.53;5044866;28;20032;-87
2022/03/23 06:45:42;;;;;;;51.42;28.20;;;;;;;-146.64;100.00;94158.66;5027444;28;20477;-86
2022/03/23 06:48:08;;;;;;;51.97;30.02;;;;;;;-146.64;100.00;93096.44;5009522;28;20121;-86
2022/03/23 06:50:34;;;;;;;60.63;30.63;;;;;;;-146.64;100.00;92034.47;5015759;28;20040;-86
2022/03/23 06:53:00;;;;;;;44.30;21.97;;;;;;;-146.64;100.00;92565.41;5025936;28;20045;-87
2022/03/23 06:55:26;;;;;;;58.58;30.60;;;;;;;-146.64;100.00;91769.03;5024332;28;20282;-87
2022/03/23 06:57:51;;;;;;;54.38;30.63;;;;;;;-146.64;100.00;93096.44;5044046;28;20073;-87
2022/03/23 07:00:17;;;;;;;65.90;29.58;;;;;;;-146.64;100.00;92299.94;5027168;28;20092;-87
2022/03/23 07:02:43;;;;;;;56.75;31.38;;;;;;;-146.64;100.00;90176.72;5012283;28;20026;-87
2022/03/23 07:05:10;;;;;;;53.25;30.83;;;;;;;-146.64;100.00;88850.28;5027415;28;20127;-85
2022/03/23 07:07:37;;;;;;;52.00;30.23;;;;;;;-146.64;100.00;90442.06;5060177;28;20040;-86
2022/03/23 07:10:03;;;;;;;57.10;29.90;;;;;;;-146.64;100.00;89911.41;5056319;28;20121;-87
2022/03/23 07:12:29;;;;;;;67.90;30.00;;;;;;;-146.64;100.00;89115.53;5024212;28;20037;-86
2022/03/23 07:14:54;;;;;;;59.53;31.27;;;;;;;-146.64;100.00;88054.63;5019299;28;20397;-87
2022/03/23 07:17:20;;;;;;;63.03;30.92;;;;;;;-146.64;100.00;86994.00;5044590;28;20037;-87
2022/03/23 07:19:46;;;;;;;64.25;32.25;;;;;;;-146.64;100.00;84343.66;5034787;28;20531;-86
2022/03/23 07:22:12;;;;;;;64.57;30.17;;;;;;;-146.64;100.00;76667.50;5038597;28;20117;-87
2022/03/23 07:24:37;;;;;;;66.77;32.97;;;;;;;-146.64;100.00;64785.31;5038462;28;20041;-85
2022/03/23 07:27:04;;;;;;;75.63;32.50;;;;;;;-146.64;100.00;47106.19;5028377;28;20053;-86
2022/03/23 07:29:30;;;;;;;63.08;30.52;;;;;;;-146.64;100.00;41647.03;5032107;28;20116;-87
2022/03/23 07:31:55;;;;;;;61.83;32.83;;;;;;;-146.64;100.00;40410.34;5023891;28;20025;-88
2022/03/23 07:34:22;;;;;;;60.60;31.83;;;;;;;-146.64;100.00;39988.66;5028257;28;20380;-87
2022/03/23 07:36:50;;;;;;;57.75;29.08;;;;;;;-146.64;100.00;39919.06;5061327;28;20037;-87
2022/03/23 07:39:20;;;;;;;54.33;28.88;;;;;;;-146.64;100.00;39673.44;5029222;28;20067;-87
2022/03/23 07:41:52;;;;;;;62.03;30.55;;;;;;;-146.64;100.00;39599.75;5028528;28;20045;-86
2022/03/23 07:44:18;;;;;;;65.72;30.33;;;;;;;-146.64;100.00;39579.28;5025741;28;20022;-87
2022/03/23 07:46:47;;;;;;;57.30;29.13;;;;;;;-146.64;100.00;39495.38;5043648;28;20041;-87
2022/03/23 07:49:14;;;;;;;53.45;30.35;;;;;;;-146.64;100.00;39456.50;5025015;28;20022;-88
2022/03/23 07:51:40;;;;;;;61.33;29.67;;;;;;;-146.64;100.00;39436.03;5044700;28;20030;-88
2022/03/23 07:54:06;;;;;;;56.83;29.60;;;;;;;-146.64;100.00;39411.47;5048204;28;20108;-88
2022/03/23 07:56:34;;;;;;;51.97;29.17;;;;;;;-146.64;100.00;39407.38;5028884;28;20500;-88
2022/03/23 07:58:59;;;;;;;52.45;32.63;;;;;;;-146.64;100.00;39407.38;5045327;28;20104;-86
2022/03/23 08:01:25;;;;;;;52.13;29.65;;;;;;;-146.64;100.00;39360.31;5033495;28;20117;-88
2022/03/23 08:03:51;;;;;;;54.47;29.90;;;;;;;-146.64;100.00;39399.19;5029325;28;20026;-87
2022/03/23 08:06:18;;;;;;;55.25;30.10;;;;;;;-146.64;100.00;39358.25;5013263;28;20301;-88
2022/03/23 08:08:43;;;;;;;58.95;30.75;;;;;;;-146.64;100.00;39345.97;5029612;28;20508;-88
2022/03/23 08:11:09;;;;;;;65.80;31.65;;;;;;;-146.64;100.00;39309.13;5061677;28;20041;-88
2022/03/23 08:13:34;;;;;;;57.13;30.17;;;;;;;-146.64;100.00;39362.34;5048688;28;20025;-88
2022/03/23 08:16:01;;;;;;;54.47;29.88;;;;;;;-146.64;100.00;39325.50;5048422;28;20032;-88
2022/03/23 08:18:27;;;;;;;57.08;30.33;;;;;;;-146.64;100.00;39286.63;5040378;28;20033;-88
2022/03/23 08:20:54;;;;;;;56.78;30.67;;;;;;;-146.64;100.00;39233.41;5027389;28;20037;-88
2022/03/23 08:23:20;;;;;;;;;;;;;;;-146.64;100.00;39239.56;5018497;28;20507;-88
2022/03/23 08:25:48;;;;;;;54.58;29.52;;;;;;;-146.64;100.00;39215.00;5018562;28;19917;-87
2022/03/23 08:28:17;;;;;;;55.05;28.95;;;;;;;-146.64;100.00;39210.91;5012721;28;20131;-88
2022/03/23 08:30:44;;;;;;;57.38;29.65;;;;;;;-146.64;100.00;39133.13;5050243;28;20440;-88
2022/03/23 08:33:10;;;;;;;52.42;28.33;;;;;;;-146.64;99.71;39116.75;5050166;28;20049;-88
2022/03/23 08:35:37;;;;;;;60.00;28.57;;;;;;;-146.64;100.00;39088.09;5046937;28;20045;-88
2022/03/23 08:38:02;;;;;;;55.92;29.10;;;;;;;-146.64;100.00;39096.28;5031295;28;20030;-87
2022/03/23 08:40:29;;;;;;;57.10;28.90;;;;;;;-146.64;92.84;39067.66;5032159;28;20048;-87
2022/03/23 08:42:55;;;;;;;56.45;30.27;;;;;;;-146.64;92.17;39034.91;5047379;28;20040;-87
2022/03/23 08:45:22;;;;;;;52.20;28.15;;;;;;;-146.64;92.90;38993.97;5067449;28;20096;-88
2022/03/23 08:47:49;;;;;;;62.83;30.00;;;;;;;-146.64;92.25;38993.97;5034017;28;20029;-87
2022/03/23 08:50:16;;;;;;;54.75;28.20;;;;;;;-146.64;85.80;38863.00;5048883;28;20014;-87
2022/03/23 08:52:41;;;;;;;53.35;29.00;;;;;;;-146.64;78.07;38920.31;5049547;28;20032;-88
2022/03/23 08:55:09;;;;;;;52.00;29.40;;;;;;;-146.64;80.03;38924.41;5031088;28;20034;-89
2022/03/23 08:57:38;;;;;;;51.42;30.08;;;;;;;-146.64;78.95;38889.59;5018737;28;20108;-88
2022/03/23 09:00:05;;;;;;;47.67;26.50;;;;;;;-146.64;70.74;38879.38;5030119;28;20100;-88
2022/03/23 09:02:31;;;;;;;47.25;28.30;;;;;;;-146.64;76.85;38891.66;5031380;28;20029;-89
2022/03/23 09:04:58;;;;;;;50.28;27.45;;;;;;;-146.64;66.80;38856.88;5048792;28;20021;-88
2022/03/23 09:07:27;;;;;;;47.03;28.05;;;;;;;-146.64;66.14;38830.25;5031942;28;20040;-88
2022/03/23 09:09:54;;;;;;;51.08;28.13;;;;;;;-146.64;61.58;38817.97;5031356;28;20037;-87
2022/03/23 09:12:20;;;;;;;50.75;28.52;;;;;;;-146.64;59.22;38797.53;5049189;28;20471;-88
2022/03/23 09:14:45;;;;;;;50.87;27.50;;;;;;;-146.64;57.50;38805.69;5031463;28;20025;-88
2022/03/23 09:17:11;;;;;;;47.87;28.23;;;;;;;-146.64;60.05;38699.28;5025793;28;20045;-89
2022/03/23 09:19:37;;;;;;;45.90;27.67;;;;;;;-146.64;63.09;38752.50;5046400;28;20044;-88
2022/03/23 09:22:05;;;;;;;43.75;28.45;;;;;;;-146.64;62.20;38525.38;5032307;28;20096;-87
2022/03/23 09:24:32;;;;;;;44.67;28.02;;;;;;;-146.64;59.95;38701.34;5032779;28;20033;-88
2022/03/23 09:26:57;;;;;;;51.92;26.80;;;;;;;-146.64;57.31;38687.03;5049043;28;20041;-88
2022/03/23 09:29:23;;;;;;;52.27;28.63;;;;;;;-146.64;53.35;38678.84;5048623;28;20068;-88
2022/03/23 09:31:48;;;;;;;43.90;26.83;;;;;;;-146.64;53.62;38670.66;5019198;28;20021;-88
2022/03/23 09:34:15;;;;;;;52.27;27.57;;;;;;;-146.64;54.44;38615.41;5015731;28;20033;-88
2022/03/23 09:39:24;;;;;;;47.25;29.33;;;;;;;-146.64;50.98;38611.31;5048184;28;20181;-88
2022/03/23 09:41:51;;;;;;;46.27;27.33;;;;;;;-146.64;49.81;38639.97;5038503;28;20053;-88
2022/03/23 09:44:18;;;;;;;54.50;28.15;;;;;;;-146.64;49.80;38562.19;5048291;28;20016;-87
2022/03/23 09:46:45;;;;;;;;;;;;;;;-146.64;48.60;38568.34;5009843;28;20009;-88
2022/03/23 09:49:10;;;;;;;47.92;29.73;;;;;;;-146.64;49.41;38566.28;5030778;28;19917;-88
2022/03/23 09:51:38;;;;;;;47.47;28.53;;;;;;;-146.64;48.46;38529.47;5031012;28;20022;-87
2022/03/23 09:54:04;;;;;;;55.47;28.02;;;;;;;-146.64;48.21;38521.28;5030653;28;20048;-87
2022/03/23 09:56:30;;;;;;;47.88;29.05;;;;;;;-146.64;48.29;38494.69;5012659;28;20025;-88
2022/03/23 09:58:55;;;;;;;56.10;29.70;;;;;;;-146.64;48.81;38494.69;5025937;28;20048;-88
2022/03/23 10:01:44;;;;;;;46.90;29.97;;;;;;;-146.64;49.42;38533.56;5017669;28;20051;-88
2022/03/23 10:04:12;;;;;;;54.42;30.48;;;;;;;-146.64;49.89;38447.63;5032973;28;20053;-87
2022/03/23 10:07:16;;;;;;;56.70;31.20;;;;;;;-146.64;51.21;38408.75;5063896;28;20025;-87
2022/03/23 10:10:19;;;;;;;49.05;29.65;;;;;;;-146.64;48.56;38384.19;5031543;28;20341;-88
2022/03/23 10:13:22;;;;;;;53.45;28.77;;;;;;;-146.64;46.66;38421.00;5027477;28;20045;-87
2022/03/23 10:16:25;;;;;;;52.70;28.30;;;;;;;-146.64;48.27;38367.81;5035406;28;20321;-87
2022/03/23 10:18:58;;;;;;;45.85;28.55;;;;;;;-146.64;44.63;38328.94;5039844;28;20052;-88
2022/03/23 10:21:31;;;;;;;47.33;29.75;;;;;;;-146.64;43.71;38310.53;5045109;28;20103;-88
2022/03/23 10:24:02;;;;;;;51.72;29.00;;;;;;;-146.64;44.94;38290.06;5028360;28;20033;-87
2022/03/23 10:26:32;;;;;;;54.58;29.15;;;;;;;-146.64;44.66;38285.97;5030294;28;20069;-88
2022/03/23 10:28:59;;;;;;;52.70;30.42;;;;;;;-146.64;44.08;38277.78;5027934;28;20400;-88
2022/03/23 10:31:26;;;;;;;46.70;28.58;;;;;;;-146.64;43.52;38208.22;5027849;28;20356;-88
2022/03/23 10:34:07;;;;;;;45.75;29.67;;;;;;;-146.64;43.08;38216.41;5027962;28;20026;-88
2022/03/23 10:36:54;;;;;;;47.45;27.50;;;;;;;-146.64;39.32;38173.44;5044465;28;20060;-88
2022/03/23 10:39:28;;;;;;;52.70;28.70;;;;;;;-146.64;37.98;38130.47;5044162;28;20057;-88
2022/03/23 10:41:58;;;;;;;44.38;26.70;;;;;;;-146.64;38.28;38126.38;5023853;28;20487;-88
2022/03/23 10:44:23;;;;;;;40.75;26.42;;;;;;;-146.64;37.03;38163.22;5053734;28;20033;-88
2022/03/23 10:46:49;;;;;;;40.73;26.40;;;;;;;-146.64;37.89;38105.91;5022248;28;20032;-87
2022/03/23 10:49:15;;;;;;;38.63;25.90;;;;;;;-146.64;36.48;38050.69;5008498;28;20030;-88
2022/03/23 10:51:42;;;;;;;39.00;26.48;;;;;;;-146.64;35.68;38126.38;5023516;28;20029;-88
2022/03/23 10:54:18;;;;;;;47.40;25.70;;;;;;;-146.64;35.85;38089.56;5042758;28;20037;-88
2022/03/23 10:56:45;;;;;;;37.55;26.25;;;;;;;-146.64;34.74;38114.09;5023490;28;20045;-89
2022/03/23 10:59:22;;;;;;;41.70;25.73;;;;;;;-146.64;33.37;38103.88;5043095;28;20076;-88
2022/03/23 11:01:59;;;;;;;40.17;25.67;;;;;;;-146.64;34.83;38058.88;5053283;28;20044;-87
2022/03/23 11:04:29;;;;;;;41.90;26.35;;;;;;;-146.64;35.25;38044.53;5010140;28;20428;-87
2022/03/23 11:06:59;;;;;;;45.25;25.77;;;;;;;-146.64;33.90;38026.13;5017949;28;20053;-87
2022/03/23 11:18:06;;;;;;;41.85;25.45;;;;;;;-146.64;34.10;37934.06;5037889;28;20059;-87